sensor_id;sensor_type;location;lat;lon;timestamp;pressure;altitude;pressure_sealevel;temperature;humidity
7660;BME280;3872;47.902;8.162;2022-08-21T00:00:00;92231.41;;;11.26;100.00
7660;BME280;3872;47.902;8.162;2022-08-21T00:02:27;92229.84;;;11.25;100.00
7660;BME280;3872;47.902;8.162;2022-08-21T00:04:54;92236.22;;;11.38;100.00
7660;BME280;3872;47.902;8.162;2022-08-21T00:07:21;92237.78;;;11.39;100.00
7660;BME280;3872;47.902;8.162;2022-08-21T00:09:48;92229.78;;;11.44;100.00
7660;BME280;3872;47.902;8.162;2022-08-21T00:12:16;92232.53;;;11.53;100.00
7660;BME280;3872;47.902;8.162;2022-08-21T00:14:42;92237.81;;;11.53;100.00
7660;BME280;3872;47.902;8.162;2022-08-21T00:17:09;92226.69;;;11.56;100.00
7660;BME280;3872;47.902;8.162;2022-08-21T00:19:36;92229.66;;;11.22;100.00
7660;BME280;3872;47.902;8.162;2022-08-21T00:22:02;92227.81;;;11.22;100.00
7660;BME280;3872;47.902;8.162;2022-08-21T00:24:29;92227.63;;;11.32;100.00
7660;BME280;3872;47.902;8.162;2022-08-21T00:26:56;92228.50;;;11.28;100.00
7660;BME280;3872;47.902;8.162;2022-08-21T00:29:24;92229.97;;;11.34;100.00
7660;BME280;3872;47.902;8.162;2022-08-21T00:31:50;92223.81;;;11.38;100.00
7660;BME280;3872;47.902;8.162;2022-08-21T00:34:17;92220.88;;;11.26;100.00
7660;BME280;3872;47.902;8.162;2022-08-21T00:36:43;92223.28;;;11.23;100.00
7660;BME280;3872;47.902;8.162;2022-08-21T00:39:10;92223.78;;;11.25;100.00
7660;BME280;3872;47.902;8.162;2022-08-21T00:41:38;92219.34;;;11.07;100.00
7660;BME280;3872;47.902;8.162;2022-08-21T00:44:06;92221.91;;;11.12;100.00
7660;BME280;3872;47.902;8.162;2022-08-21T00:46:35;92218.66;;;11.01;100.00
7660;BME280;3872;47.902;8.162;2022-08-21T00:49:02;92214.38;;;11.05;100.00
7660;BME280;3872;47.902;8.162;2022-08-21T00:51:33;92218.34;;;11.03;100.00
7660;BME280;3872;47.902;8.162;2022-08-21T00:54:02;92216.66;;;10.93;100.00
7660;BME280;3872;47.902;8.162;2022-08-21T00:56:29;92211.22;;;11.03;100.00
7660;BME280;3872;47.902;8.162;2022-08-21T00:58:57;92211.16;;;11.08;100.00
7660;BME280;3872;47.902;8.162;2022-08-21T01:01:25;92203.84;;;11.05;100.00
7660;BME280;3872;47.902;8.162;2022-08-21T01:03:53;92203.38;;;11.17;100.00
7660;BME280;3872;47.902;8.162;2022-08-21T01:06:20;92199.72;;;10.99;100.00
7660;BME280;3872;47.902;8.162;2022-08-21T01:08:47;92203.34;;;11.03;100.00
7660;BME280;3872;47.902;8.162;2022-08-21T01:11:14;92199.13;;;11.02;100.00
7660;BME280;3872;47.902;8.162;2022-08-21T01:13:42;92195.28;;;10.94;100.00
7660;BME280;3872;47.902;8.162;2022-08-21T01:16:13;92207.72;;;10.94;100.00
7660;BME280;3872;47.902;8.162;2022-08-21T01:18:42;92197.38;;;10.97;100.00
7660;BME280;3872;47.902;8.162;2022-08-21T01:21:12;92203.59;;;11.02;100.00
7660;BME280;3872;47.902;8.162;2022-08-21T01:23:42;92205.06;;;10.94;100.00
7660;BME280;3872;47.902;8.162;2022-08-21T01:26:10;92193.34;;;10.86;100.00
7660;BME280;3872;47.902;8.162;2022-08-21T01:28:40;92195.88;;;10.91;100.00
7660;BME280;3872;47.902;8.162;2022-08-21T01:31:10;92197.97;;;10.76;100.00
7660;BME280;3872;47.902;8.162;2022-08-21T01:33:38;92192.97;;;10.74;100.00
7660;BME280;3872;47.902;8.162;2022-08-21T01:36:05;92192.63;;;10.81;100.00
7660;BME280;3872;47.902;8.162;2022-08-21T01:38:33;92192.16;;;10.79;100.00
7660;BME280;3872;47.902;8.162;2022-08-21T01:41:00;92186.28;;;10.82;100.00
7660;BME280;3872;47.902;8.162;2022-08-21T01:43:27;92190.22;;;10.84;100.00
7660;BME280;3872;47.902;8.162;2022-08-21T01:45:53;92187.28;;;10.86;100.00
7660;BME280;3872;47.902;8.162;2022-08-21T01:48:19;92183.22;;;10.93;100.00
7660;BME280;3872;47.902;8.162;2022-08-21T01:50:46;92189.56;;;10.92;100.00
7660;BME280;3872;47.902;8.162;2022-08-21T01:53:13;92183.78;;;10.90;100.00
7660;BME280;3872;47.902;8.162;2022-08-21T01:55:42;92178.63;;;10.85;100.00
7660;BME280;3872;47.902;8.162;2022-08-21T01:58:09;92172.75;;;10.88;100.00
7660;BME280;3872;47.902;8.162;2022-08-21T02:00:36;92168.97;;;10.94;100.00
7660;BME280;3872;47.902;8.162;2022-08-21T02:03:03;92170.13;;;10.88;100.00
7660;BME280;3872;47.902;8.162;2022-08-21T02:05:29;92160.31;;;10.94;100.00
7660;BME280;3872;47.902;8.162;2022-08-21T02:07:56;92168.00;;;10.90;100.00
7660;BME280;3872;47.902;8.162;2022-08-21T02:10:27;92168.88;;;10.86;100.00
7660;BME280;3872;47.902;8.162;2022-08-21T02:12:56;92165.22;;;10.82;100.00
7660;BME280;3872;47.902;8.162;2022-08-21T02:15:25;92163.41;;;10.96;100.00
7660;BME280;3872;47.902;8.162;2022-08-21T02:17:54;92167.91;;;10.95;100.00
7660;BME280;3872;47.902;8.162;2022-08-21T02:20:24;92164.19;;;10.96;100.00
7660;BME280;3872;47.902;8.162;2022-08-21T02:22:52;92158.66;;;10.98;100.00
7660;BME280;3872;47.902;8.162;2022-08-21T02:25:20;92157.69;;;10.94;100.00
7660;BME280;3872;47.902;8.162;2022-08-21T02:27:48;92155.59;;;10.91;100.00
7660;BME280;3872;47.902;8.162;2022-08-21T02:30:18;92151.91;;;10.92;100.00
7660;BME280;3872;47.902;8.162;2022-08-21T02:32:45;92151.31;;;10.95;100.00
7660;BME280;3872;47.902;8.162;2022-08-21T02:35:12;92157.88;;;10.97;100.00
7660;BME280;3872;47.902;8.162;2022-08-21T02:37:44;92150.66;;;11.03;100.00
7660;BME280;3872;47.902;8.162;2022-08-21T02:40:12;92151.81;;;10.97;100.00
7660;BME280;3872;47.902;8.162;2022-08-21T02:42:39;92152.41;;;10.94;100.00
7660;BME280;3872;47.902;8.162;2022-08-21T02:45:07;92148.78;;;10.90;100.00
7660;BME280;3872;47.902;8.162;2022-08-21T02:47:35;92154.69;;;10.82;100.00
7660;BME280;3872;47.902;8.162;2022-08-21T02:50:03;92157.28;;;10.87;100.00
7660;BME280;3872;47.902;8.162;2022-08-21T02:52:29;92151.50;;;10.85;100.00
7660;BME280;3872;47.902;8.162;2022-08-21T02:54:56;92151.41;;;10.90;100.00
7660;BME280;3872;47.902;8.162;2022-08-21T02:57:22;92154.13;;;10.85;100.00
7660;BME280;3872;47.902;8.162;2022-08-21T02:59:49;92152.28;;;10.85;100.00
7660;BME280;3872;47.902;8.162;2022-08-21T03:02:15;92156.53;;;10.81;100.00
7660;BME280;3872;47.902;8.162;2022-08-21T03:04:43;92154.88;;;10.72;100.00
7660;BME280;3872;47.902;8.162;2022-08-21T03:07:10;92154.88;;;10.72;100.00
7660;BME280;3872;47.902;8.162;2022-08-21T03:09:36;92157.28;;;10.68;100.00
7660;BME280;3872;47.902;8.162;2022-08-21T03:12:03;92161.56;;;10.64;100.00
7660;BME280;3872;47.902;8.162;2022-08-21T03:14:30;92152.19;;;10.58;100.00
7660;BME280;3872;47.902;8.162;2022-08-21T03:16:56;92147.84;;;10.48;100.00
7660;BME280;3872;47.902;8.162;2022-08-21T03:19:23;92140.25;;;10.47;100.00
7660;BME280;3872;47.902;8.162;2022-08-21T03:21:51;92140.69;;;10.35;100.00
7660;BME280;3872;47.902;8.162;2022-08-21T03:24:17;92142.94;;;10.42;100.00
7660;BME280;3872;47.902;8.162;2022-08-21T03:26:44;92140.47;;;10.50;100.00
7660;BME280;3872;47.902;8.162;2022-08-21T03:29:10;92133.34;;;10.51;100.00
7660;BME280;3872;47.902;8.162;2022-08-21T03:31:37;92140.03;;;10.43;100.00
7660;BME280;3872;47.902;8.162;2022-08-21T03:34:03;92136.25;;;10.49;100.00
7660;BME280;3872;47.902;8.162;2022-08-21T03:36:30;92133.72;;;10.44;100.00
7660;BME280;3872;47.902;8.162;2022-08-21T03:38:58;92133.50;;;10.41;100.00
7660;BME280;3872;47.902;8.162;2022-08-21T03:41:24;92130.06;;;10.40;100.00
7660;BME280;3872;47.902;8.162;2022-08-21T03:43:51;92130.72;;;10.32;100.00
7660;BME280;3872;47.902;8.162;2022-08-21T03:46:18;92138.84;;;10.36;100.00
7660;BME280;3872;47.902;8.162;2022-08-21T03:48:46;92141.09;;;10.42;100.00
7660;BME280;3872;47.902;8.162;2022-08-21T03:51:12;92138.25;;;10.39;100.00
7660;BME280;3872;47.902;8.162;2022-08-21T03:53:40;92133.56;;;10.36;100.00
7660;BME280;3872;47.902;8.162;2022-08-21T03:56:07;92131.94;;;10.21;100.00
7660;BME280;3872;47.902;8.162;2022-08-21T03:58:34;92133.00;;;10.20;100.00
7660;BME280;3872;47.902;8.162;2022-08-21T04:01:02;92127.16;;;10.23;100.00
7660;BME280;3872;47.902;8.162;2022-08-21T04:03:30;92131.34;;;10.24;100.00
7660;BME280;3872;47.902;8.162;2022-08-21T04:05:56;92132.00;;;10.35;100.00
7660;BME280;3872;47.902;8.162;2022-08-21T04:08:23;92139.03;;;10.39;100.00
7660;BME280;3872;47.902;8.162;2022-08-21T04:10:52;92141.59;;;10.44;100.00
7660;BME280;3872;47.902;8.162;2022-08-21T04:13:21;92137.97;;;10.40;100.00
7660;BME280;3872;47.902;8.162;2022-08-21T04:15:48;92135.41;;;10.35;100.00
7660;BME280;3872;47.902;8.162;2022-08-21T04:18:15;92141.81;;;10.29;100.00
7660;BME280;3872;47.902;8.162;2022-08-21T04:20:43;92147.09;;;10.29;100.00
7660;BME280;3872;47.902;8.162;2022-08-21T04:23:11;92147.09;;;10.29;100.00
7660;BME280;3872;47.902;8.162;2022-08-21T04:25:38;92142.47;;;10.21;100.00
7660;BME280;3872;47.902;8.162;2022-08-21T04:28:04;92144.72;;;10.28;100.00
7660;BME280;3872;47.902;8.162;2022-08-21T04:30:32;92140.09;;;10.19;100.00
7660;BME280;3872;47.902;8.162;2022-08-21T04:32:59;92143.53;;;10.20;100.00
7660;BME280;3872;47.902;8.162;2022-08-21T04:35:27;92149.09;;;10.13;100.00
7660;BME280;3872;47.902;8.162;2022-08-21T04:37:55;92149.66;;;10.10;100.00
7660;BME280;3872;47.902;8.162;2022-08-21T04:40:25;92140.56;;;10.03;100.00
7660;BME280;3872;47.902;8.162;2022-08-21T04:42:53;92147.81;;;10.11;100.00
7660;BME280;3872;47.902;8.162;2022-08-21T04:45:23;92145.91;;;10.16;100.00
7660;BME280;3872;47.902;8.162;2022-08-21T04:47:54;92145.09;;;10.21;100.00
7660;BME280;3872;47.902;8.162;2022-08-21T04:50:23;92153.41;;;10.28;100.00
7660;BME280;3872;47.902;8.162;2022-08-21T04:53:03;92162.53;;;10.12;100.00
7660;BME280;3872;47.902;8.162;2022-08-21T04:55:30;92157.63;;;10.05;100.00
7660;BME280;3872;47.902;8.162;2022-08-21T04:57:57;92162.59;;;10.07;100.00
7660;BME280;3872;47.902;8.162;2022-08-21T05:00:24;92162.53;;;10.12;100.00
7660;BME280;3872;47.902;8.162;2022-08-21T05:02:53;92163.88;;;10.09;100.00
7660;BME280;3872;47.902;8.162;2022-08-21T05:05:22;92168.13;;;10.05;100.00
7660;BME280;3872;47.902;8.162;2022-08-21T05:07:48;92160.81;;;10.02;100.00
7660;BME280;3872;47.902;8.162;2022-08-21T05:10:15;92160.53;;;10.04;100.00
7660;BME280;3872;47.902;8.162;2022-08-21T05:12:43;92158.72;;;10.23;100.00
7660;BME280;3872;47.902;8.162;2022-08-21T05:15:10;92160.00;;;10.26;100.00
7660;BME280;3872;47.902;8.162;2022-08-21T05:17:38;92158.66;;;10.28;100.00
7660;BME280;3872;47.902;8.162;2022-08-21T05:20:07;92159.59;;;10.37;100.00
7660;BME280;3872;47.902;8.162;2022-08-21T05:22:34;92162.66;;;10.44;100.00
7660;BME280;3872;47.902;8.162;2022-08-21T05:25:00;92161.72;;;10.54;100.00
7660;BME280;3872;47.902;8.162;2022-08-21T05:27:27;92164.06;;;10.55;100.00
7660;BME280;3872;47.902;8.162;2022-08-21T05:29:55;92165.13;;;10.54;100.00
7660;BME280;3872;47.902;8.162;2022-08-21T05:32:22;92168.19;;;10.62;100.00
7660;BME280;3872;47.902;8.162;2022-08-21T05:34:48;92157.78;;;10.70;100.00
7660;BME280;3872;47.902;8.162;2022-08-21T05:37:16;92164.75;;;10.61;100.00
7660;BME280;3872;47.902;8.162;2022-08-21T05:39:43;92168.88;;;10.67;100.00
7660;BME280;3872;47.902;8.162;2022-08-21T05:42:10;92162.19;;;10.75;100.00
7660;BME280;3872;47.902;8.162;2022-08-21T05:44:36;92161.41;;;10.74;100.00
7660;BME280;3872;47.902;8.162;2022-08-21T05:47:04;92161.19;;;10.71;100.00
7660;BME280;3872;47.902;8.162;2022-08-21T05:49:31;92157.13;;;10.78;100.00
7660;BME280;3872;47.902;8.162;2022-08-21T05:51:58;92160.88;;;10.91;100.00
7660;BME280;3872;47.902;8.162;2022-08-21T05:54:26;92165.16;;;11.19;100.00
7660;BME280;3872;47.902;8.162;2022-08-21T05:56:52;92170.28;;;11.43;100.00
7660;BME280;3872;47.902;8.162;2022-08-21T05:59:19;92162.25;;;11.48;100.00
7660;BME280;3872;47.902;8.162;2022-08-21T06:01:46;92159.53;;;11.53;100.00
7660;BME280;3872;47.902;8.162;2022-08-21T06:04:13;92157.38;;;11.69;100.00
7660;BME280;3872;47.902;8.162;2022-08-21T06:06:39;92159.88;;;11.79;100.00
7660;BME280;3872;47.902;8.162;2022-08-21T06:09:06;92158.09;;;11.88;100.00
7660;BME280;3872;47.902;8.162;2022-08-21T06:11:34;92165.13;;;12.06;100.00
7660;BME280;3872;47.902;8.162;2022-08-21T06:14:01;92153.59;;;12.02;100.00
7660;BME280;3872;47.902;8.162;2022-08-21T06:16:28;92156.13;;;12.21;100.00
7660;BME280;3872;47.902;8.162;2022-08-21T06:18:55;92157.28;;;12.29;100.00
7660;BME280;3872;47.902;8.162;2022-08-21T06:21:21;92153.28;;;12.53;100.00
7660;BME280;3872;47.902;8.162;2022-08-21T06:23:48;92149.81;;;12.67;100.00
7660;BME280;3872;47.902;8.162;2022-08-21T06:26:15;92140.69;;;12.95;100.00
7660;BME280;3872;47.902;8.162;2022-08-21T06:28:43;92137.09;;;12.91;100.00
7660;BME280;3872;47.902;8.162;2022-08-21T06:31:12;92137.59;;;13.15;100.00
7660;BME280;3872;47.902;8.162;2022-08-21T06:33:39;92138.41;;;13.24;100.00
7660;BME280;3872;47.902;8.162;2022-08-21T06:36:05;92139.13;;;13.39;100.00
7660;BME280;3872;47.902;8.162;2022-08-21T06:38:32;92130.88;;;13.71;100.00
7660;BME280;3872;47.902;8.162;2022-08-21T06:40:59;92134.22;;;13.54;100.00
7660;BME280;3872;47.902;8.162;2022-08-21T06:43:25;92131.53;;;13.85;100.00
7660;BME280;3872;47.902;8.162;2022-08-21T06:45:53;92140.19;;;13.68;100.00
7660;BME280;3872;47.902;8.162;2022-08-21T06:48:20;92128.22;;;13.71;100.00
7660;BME280;3872;47.902;8.162;2022-08-21T06:50:47;92124.13;;;13.65;100.00
7660;BME280;3872;47.902;8.162;2022-08-21T06:53:15;92131.94;;;13.70;100.00
7660;BME280;3872;47.902;8.162;2022-08-21T06:55:43;92143.09;;;13.58;100.00
7660;BME280;3872;47.902;8.162;2022-08-21T06:58:10;92130.06;;;13.62;100.00
7660;BME280;3872;47.902;8.162;2022-08-21T07:00:39;92131.53;;;13.85;100.00
7660;BME280;3872;47.902;8.162;2022-08-21T07:03:07;92131.41;;;14.07;100.00
7660;BME280;3872;47.902;8.162;2022-08-21T07:05:34;92134.50;;;14.01;100.00
7660;BME280;3872;47.902;8.162;2022-08-21T07:08:01;92125.81;;;14.09;100.00
7660;BME280;3872;47.902;8.162;2022-08-21T07:10:27;92123.97;;;14.18;100.00
7660;BME280;3872;47.902;8.162;2022-08-21T07:12:54;92120.41;;;14.31;100.00
7660;BME280;3872;47.902;8.162;2022-08-21T07:15:21;92121.66;;;14.34;100.00
7660;BME280;3872;47.902;8.162;2022-08-21T07:17:48;92125.09;;;14.34;100.00
7660;BME280;3872;47.902;8.162;2022-08-21T07:20:16;92126.69;;;14.53;100.00
7660;BME280;3872;47.902;8.162;2022-08-21T07:22:43;92124.19;;;14.65;100.00
7660;BME280;3872;47.902;8.162;2022-08-21T07:25:10;92123.06;;;15.09;100.00
7660;BME280;3872;47.902;8.162;2022-08-21T07:27:37;92126.28;;;15.40;100.00
7660;BME280;3872;47.902;8.162;2022-08-21T07:30:04;92130.66;;;15.27;100.00
7660;BME280;3872;47.902;8.162;2022-08-21T07:32:31;92131.53;;;15.49;100.00
7660;BME280;3872;47.902;8.162;2022-08-21T07:34:58;92131.88;;;15.56;100.00
7660;BME280;3872;47.902;8.162;2022-08-21T07:37:26;92128.47;;;15.29;100.00
7660;BME280;3872;47.902;8.162;2022-08-21T07:39:52;92128.00;;;15.91;100.00
7660;BME280;3872;47.902;8.162;2022-08-21T07:42:19;92124.88;;;16.19;100.00
7660;BME280;3872;47.902;8.162;2022-08-21T07:44:45;92131.41;;;16.71;100.00
7660;BME280;3872;47.902;8.162;2022-08-21T07:47:12;92127.97;;;16.92;100.00
7660;BME280;3872;47.902;8.162;2022-08-21T07:49:38;92118.66;;;17.51;100.00
7660;BME280;3872;47.902;8.162;2022-08-21T07:52:05;92123.97;;;17.51;100.00
7660;BME280;3872;47.902;8.162;2022-08-21T07:54:33;92118.41;;;18.02;100.00
7660;BME280;3872;47.902;8.162;2022-08-21T07:57:00;92119.72;;;18.32;100.00
7660;BME280;3872;47.902;8.162;2022-08-21T07:59:27;92115.56;;;18.71;100.00
7660;BME280;3872;47.902;8.162;2022-08-21T08:01:54;92116.81;;;18.37;100.00
7660;BME280;3872;47.902;8.162;2022-08-21T08:04:21;92119.59;;;17.35;100.00
7660;BME280;3872;47.902;8.162;2022-08-21T08:06:47;92117.06;;;17.38;100.00
7660;BME280;3872;47.902;8.162;2022-08-21T08:09:14;92117.31;;;17.12;100.00
7660;BME280;3872;47.902;8.162;2022-08-21T08:11:43;92119.31;;;17.15;100.00
7660;BME280;3872;47.902;8.162;2022-08-21T08:14:10;92111.16;;;17.66;100.00
7660;BME280;3872;47.902;8.162;2022-08-21T08:16:37;92115.06;;;17.92;100.00
7660;BME280;3872;47.902;8.162;2022-08-21T08:19:03;92104.28;;;17.65;100.00
7660;BME280;3872;47.902;8.162;2022-08-21T08:21:30;92111.91;;;17.54;100.00
7660;BME280;3872;47.902;8.162;2022-08-21T08:23:57;92112.19;;;17.40;100.00
7660;BME280;3872;47.902;8.162;2022-08-21T08:26:24;92113.09;;;17.44;100.00
7660;BME280;3872;47.902;8.162;2022-08-21T08:28:52;92113.22;;;17.60;100.00
7660;BME280;3872;47.902;8.162;2022-08-21T08:31:19;92101.69;;;17.56;100.00
7660;BME280;3872;47.902;8.162;2022-08-21T08:33:45;92100.53;;;17.90;100.00
7660;BME280;3872;47.902;8.162;2022-08-21T08:36:14;92100.19;;;17.91;100.00
7660;BME280;3872;47.902;8.162;2022-08-21T08:38:41;92101.84;;;17.72;100.00
7660;BME280;3872;47.902;8.162;2022-08-21T08:41:11;92091.66;;;17.98;100.00
7660;BME280;3872;47.902;8.162;2022-08-21T08:43:40;92086.84;;;18.28;100.00
7660;BME280;3872;47.902;8.162;2022-08-21T08:46:14;92090.22;;;18.77;100.00
7660;BME280;3872;47.902;8.162;2022-08-21T08:48:53;92087.13;;;19.74;100.00
7660;BME280;3872;47.902;8.162;2022-08-21T08:51:25;92080.81;;;19.67;100.00
7660;BME280;3872;47.902;8.162;2022-08-21T08:53:57;92080.41;;;19.96;100.00
7660;BME280;3872;47.902;8.162;2022-08-21T08:56:30;92075.91;;;19.69;100.00
7660;BME280;3872;47.902;8.162;2022-08-21T08:59:02;92069.00;;;19.83;100.00
7660;BME280;3872;47.902;8.162;2022-08-21T09:01:33;92071.50;;;19.92;100.00
7660;BME280;3872;47.902;8.162;2022-08-21T09:04:00;92075.34;;;20.26;100.00
7660;BME280;3872;47.902;8.162;2022-08-21T09:06:44;92070.88;;;20.65;100.00
7660;BME280;3872;47.902;8.162;2022-08-21T09:09:31;92070.69;;;20.93;100.00
7660;BME280;3872;47.902;8.162;2022-08-21T09:12:06;92067.59;;;21.10;100.00
7660;BME280;3872;47.902;8.162;2022-08-21T09:14:52;92067.25;;;21.31;100.00
7660;BME280;3872;47.902;8.162;2022-08-21T09:17:35;92073.16;;;21.21;100.00
7660;BME280;3872;47.902;8.162;2022-08-21T09:20:12;92060.50;;;21.60;100.00
7660;BME280;3872;47.902;8.162;2022-08-21T09:22:49;92058.75;;;21.71;91.21
7660;BME280;3872;47.902;8.162;2022-08-21T09:25:26;92054.59;;;21.73;88.73
7660;BME280;3872;47.902;8.162;2022-08-21T09:27:53;92059.22;;;22.22;83.63
7660;BME280;3872;47.902;8.162;2022-08-21T09:30:25;92052.63;;;21.93;87.34
7660;BME280;3872;47.902;8.162;2022-08-21T09:32:53;92047.50;;;22.07;84.98
7660;BME280;3872;47.902;8.162;2022-08-21T09:35:21;92053.00;;;22.18;84.92
7660;BME280;3872;47.902;8.162;2022-08-21T09:37:52;92052.28;;;22.47;77.85
7660;BME280;3872;47.902;8.162;2022-08-21T09:40:27;92043.91;;;22.52;78.86
7660;BME280;3872;47.902;8.162;2022-08-21T09:42:57;92048.84;;;22.73;79.30
7660;BME280;3872;47.902;8.162;2022-08-21T09:45:25;92053.38;;;22.99;73.89
7660;BME280;3872;47.902;8.162;2022-08-21T09:47:53;92055.81;;;23.11;70.04
7660;BME280;3872;47.902;8.162;2022-08-21T09:50:23;92051.88;;;23.01;71.77
7660;BME280;3872;47.902;8.162;2022-08-21T09:52:52;92057.44;;;23.93;64.64
7660;BME280;3872;47.902;8.162;2022-08-21T09:55:38;92051.75;;;23.61;64.44
7660;BME280;3872;47.902;8.162;2022-08-21T09:58:32;92048.84;;;23.80;58.35
7660;BME280;3872;47.902;8.162;2022-08-21T10:01:02;92042.47;;;23.52;60.92
7660;BME280;3872;47.902;8.162;2022-08-21T10:03:31;92040.50;;;22.52;61.02
7660;BME280;3872;47.902;8.162;2022-08-21T10:06:00;92041.53;;;23.03;60.09
7660;BME280;3872;47.902;8.162;2022-08-21T10:08:28;92035.88;;;22.52;62.67
7660;BME280;3872;47.902;8.162;2022-08-21T10:10:56;92027.56;;;23.58;58.20
7660;BME280;3872;47.902;8.162;2022-08-21T10:13:36;92031.81;;;23.62;58.09
7660;BME280;3872;47.902;8.162;2022-08-21T10:16:15;92031.94;;;23.73;59.00
7660;BME280;3872;47.902;8.162;2022-08-21T10:18:56;92034.16;;;23.30;56.25
7660;BME280;3872;47.902;8.162;2022-08-21T10:21:31;92029.41;;;23.17;60.01
7660;BME280;3872;47.902;8.162;2022-08-21T10:24:08;92025.25;;;23.60;58.06
7660;BME280;3872;47.902;8.162;2022-08-21T10:26:45;92029.66;;;23.78;56.43
7660;BME280;3872;47.902;8.162;2022-08-21T10:29:28;92022.16;;;24.02;55.50
7660;BME280;3872;47.902;8.162;2022-08-21T10:32:05;92020.22;;;23.51;56.89
7660;BME280;3872;47.902;8.162;2022-08-21T10:34:45;92019.97;;;22.96;56.83
7660;BME280;3872;47.902;8.162;2022-08-21T10:37:22;92021.53;;;22.11;59.10
7660;BME280;3872;47.902;8.162;2022-08-21T10:40:02;92019.78;;;22.52;59.37
7660;BME280;3872;47.902;8.162;2022-08-21T10:42:37;92019.56;;;22.35;60.43
7660;BME280;3872;47.902;8.162;2022-08-21T10:45:14;92017.44;;;23.11;60.00
7660;BME280;3872;47.902;8.162;2022-08-21T10:47:46;92010.81;;;23.34;58.83
7660;BME280;3872;47.902;8.162;2022-08-21T10:50:25;92013.84;;;23.33;53.65
7660;BME280;3872;47.902;8.162;2022-08-21T10:53:29;92015.28;;;23.23;55.61
7660;BME280;3872;47.902;8.162;2022-08-21T10:56:01;92015.28;;;22.60;58.96
7660;BME280;3872;47.902;8.162;2022-08-21T10:58:30;92015.56;;;23.48;58.51
7660;BME280;3872;47.902;8.162;2022-08-21T11:01:00;92017.22;;;23.23;59.38
7660;BME280;3872;47.902;8.162;2022-08-21T11:03:33;92020.34;;;23.65;57.83
7660;BME280;3872;47.902;8.162;2022-08-21T11:06:08;92015.03;;;23.72;57.68
7660;BME280;3872;47.902;8.162;2022-08-21T11:08:39;92015.69;;;23.59;55.77
7660;BME280;3872;47.902;8.162;2022-08-21T11:11:10;92011.88;;;23.63;54.73
7660;BME280;3872;47.902;8.162;2022-08-21T11:13:41;92014.63;;;24.87;53.32
7660;BME280;3872;47.902;8.162;2022-08-21T11:16:17;92004.91;;;25.97;46.52
7660;BME280;3872;47.902;8.162;2022-08-21T11:18:49;92003.75;;;25.77;44.30
7660;BME280;3872;47.902;8.162;2022-08-21T11:21:27;91994.44;;;25.46;46.88
7660;BME280;3872;47.902;8.162;2022-08-21T11:24:02;91994.50;;;26.31;44.40
7660;BME280;3872;47.902;8.162;2022-08-21T11:26:34;91989.38;;;25.20;47.84
7660;BME280;3872;47.902;8.162;2022-08-21T11:29:10;91975.94;;;26.58;46.39
7660;BME280;3872;47.902;8.162;2022-08-21T11:31:50;91980.94;;;26.60;43.64
7660;BME280;3872;47.902;8.162;2022-08-21T11:34:29;91992.28;;;24.76;48.02
7660;BME280;3872;47.902;8.162;2022-08-21T11:37:05;91987.09;;;24.35;48.48
7660;BME280;3872;47.902;8.162;2022-08-21T11:39:43;91988.97;;;24.31;48.64
7660;BME280;3872;47.902;8.162;2022-08-21T11:42:21;91993.09;;;24.87;47.77
7660;BME280;3872;47.902;8.162;2022-08-21T11:44:55;91986.72;;;25.27;47.78
7660;BME280;3872;47.902;8.162;2022-08-21T11:47:31;91982.22;;;24.62;49.24
7660;BME280;3872;47.902;8.162;2022-08-21T11:50:10;91978.66;;;23.86;50.40
7660;BME280;3872;47.902;8.162;2022-08-21T11:52:43;91971.78;;;26.29;45.69
7660;BME280;3872;47.902;8.162;2022-08-21T11:55:15;91977.06;;;26.71;42.09
7660;BME280;3872;47.902;8.162;2022-08-21T11:57:51;91985.16;;;25.26;47.61
7660;BME280;3872;47.902;8.162;2022-08-21T12:00:21;91973.56;;;26.74;46.14
7660;BME280;3872;47.902;8.162;2022-08-21T12:02:51;91982.16;;;26.41;43.37
7660;BME280;3872;47.902;8.162;2022-08-21T12:05:32;91977.53;;;26.41;42.70
7660;BME280;3872;47.902;8.162;2022-08-21T12:08:05;91984.91;;;24.66;45.57
7660;BME280;3872;47.902;8.162;2022-08-21T12:10:35;91980.25;;;25.81;44.92
7660;BME280;3872;47.902;8.162;2022-08-21T12:13:07;91963.63;;;26.46;44.73
7660;BME280;3872;47.902;8.162;2022-08-21T12:15:35;91964.50;;;27.23;45.33
7660;BME280;3872;47.902;8.162;2022-08-21T12:18:04;91969.69;;;26.89;47.99
7660;BME280;3872;47.902;8.162;2022-08-21T12:20:42;91963.56;;;28.06;44.89
7660;BME280;3872;47.902;8.162;2022-08-21T12:23:24;91971.09;;;28.33;43.60
7660;BME280;3872;47.902;8.162;2022-08-21T12:26:18;91961.16;;;28.57;44.58
7660;BME280;3872;47.902;8.162;2022-08-21T12:28:46;91961.44;;;29.34;42.11
7660;BME280;3872;47.902;8.162;2022-08-21T12:31:22;91958.91;;;29.50;40.99
7660;BME280;3872;47.902;8.162;2022-08-21T12:33:56;91956.69;;;27.98;45.01
7660;BME280;3872;47.902;8.162;2022-08-21T12:36:27;91968.41;;;29.04;41.60
7660;BME280;3872;47.902;8.162;2022-08-21T12:39:01;91959.44;;;29.91;40.24
7660;BME280;3872;47.902;8.162;2022-08-21T12:41:34;91960.25;;;30.39;38.37
7660;BME280;3872;47.902;8.162;2022-08-21T12:44:07;91961.34;;;30.41;37.41
7660;BME280;3872;47.902;8.162;2022-08-21T12:46:38;91966.94;;;29.57;37.96
7660;BME280;3872;47.902;8.162;2022-08-21T12:49:11;91957.94;;;30.37;35.89
7660;BME280;3872;47.902;8.162;2022-08-21T12:51:50;91951.22;;;30.45;36.95
7660;BME280;3872;47.902;8.162;2022-08-21T12:54:27;91950.09;;;31.05;35.48
7660;BME280;3872;47.902;8.162;2022-08-21T12:57:03;91961.50;;;28.21;37.67
7660;BME280;3872;47.902;8.162;2022-08-21T12:59:30;91963.78;;;27.78;38.23
7660;BME280;3872;47.902;8.162;2022-08-21T13:02:00;91959.47;;;26.06;42.17
7660;BME280;3872;47.902;8.162;2022-08-21T13:04:35;91956.75;;;27.33;43.25
7660;BME280;3872;47.902;8.162;2022-08-21T13:07:06;91953.53;;;28.86;39.68
7660;BME280;3872;47.902;8.162;2022-08-21T13:09:42;91957.56;;;27.85;40.26
7660;BME280;3872;47.902;8.162;2022-08-21T13:12:11;91941.84;;;28.17;39.74
7660;BME280;3872;47.902;8.162;2022-08-21T13:14:39;91954.22;;;26.97;41.63
7660;BME280;3872;47.902;8.162;2022-08-21T13:17:07;91947.59;;;27.75;40.46
7660;BME280;3872;47.902;8.162;2022-08-21T13:19:34;91948.66;;;29.04;38.71
7660;BME280;3872;47.902;8.162;2022-08-21T13:22:01;91948.28;;;27.27;41.84
7660;BME280;3872;47.902;8.162;2022-08-21T13:24:30;91947.19;;;27.17;43.60
7660;BME280;3872;47.902;8.162;2022-08-21T13:27:00;91958.69;;;25.92;44.31